General WM J Fox Airfield Lancaster US
ICAO: KWJF
IATA: WJF
Category: Medium
Scheduled Services: No

Elevation: 2351 ft
TransAlt. 18000 ft.

Airport Communications:
JOSHUA APP/DEP:126.1
ATIS:126.3
AWOS 3:133.875
CTAF:120.3
GND:121.7
RIVERSIDE RDO:122.2
FOX TWR:120.3
UNICOM:122.95

KWJF Zoom In..

Runways:

(A) RW 06 length 7201 ft width 150 ft
---- / hdg 57

(B) RW 24 length 7201 ft width 150 ft
---- / hdg 237

Location; KWJF
Day. 23 / Time. 02.56 Zulu
* Altimeter: 30.04
* Temperature: 31° c. 87.8°f.
* Wind from: 240° Speed 16 kn.
Dewpoint: 12° c.
Visibility: 10 Statute Miles.
Clouds: Clear (automated report).

KWJF 230256Z 24016KT 10SM CLR 31/12 A3004 RMK AO2 SLP147 T03060117 53011


Wind From 240°
Speed 16 kn.

 
 
jpsmedia.com for Web Design worldairports.se 2018   terms of use